KSFO

San Francisco International Airport

San Francisco, California, USA
METAR KSFO 191706Z 02004KT 10SM FEW006 SCT010 SCT013 16/12 A3000 RMK AO2 T01610117
Observed Flight Rules
Aug-19 @ 17:06 UTC (7 minutes ago) Visual Flight Rules
Wind Visibility Clouds
20° at 4 knots 10 miles
  • Few at 600' AGL
  • Scattered at 1,000' AGL
  • Scattered at 1,300' AGL
Temperatures Readings
Current 16°C / 61°F
Dewpoint 12°C / 54°F
Humidity 77%
Altimeter 30" Hg
Pressure 1016 hPa
Elevation 3
METAR KSFO 191706Z 02004KT 10SM FEW006 SCT010 SCT013 16/12 A3000 RMK AO2 T01610117
Observed Flight Rules
Aug-19 @ 17:06 UTC
(7 minutes ago)
VFR
Wind Visibility
20° at 4 knots 10 miles
Clouds
  • Few at 600' AGL
  • Scattered at 1,000' AGL
  • Scattered at 1,300' AGL
Temperature Dewpoint
16°C / 61°F 12°C / 54°F
Humidity Altimeter Pressure
77% 30" Hg 1016 hPa